createdAt,value
2018-10-16T00:00:52.878Z,99.90
2018-10-16T00:03:21.093Z,99.90
2018-10-16T00:05:49.501Z,99.90
2018-10-16T00:08:17.783Z,99.90
2018-10-16T00:10:47.010Z,99.90
2018-10-16T00:13:15.466Z,99.90
2018-10-16T00:15:43.689Z,99.90
2018-10-16T00:18:12.548Z,99.90
2018-10-16T00:20:41.319Z,99.90
2018-10-16T00:23:10.641Z,99.90
2018-10-16T00:25:38.957Z,99.90
2018-10-16T00:28:07.592Z,99.90
2018-10-16T00:30:35.830Z,99.90
2018-10-16T00:33:04.257Z,99.90
2018-10-16T00:35:32.707Z,99.90
2018-10-16T00:38:00.941Z,99.90
2018-10-16T00:40:29.155Z,99.90
2018-10-16T00:42:57.339Z,99.90
2018-10-16T00:45:25.586Z,99.90
2018-10-16T00:47:53.814Z,99.90
2018-10-16T00:50:22.043Z,99.90
2018-10-16T00:52:50.253Z,99.90
2018-10-16T00:55:18.469Z,99.90
2018-10-16T00:57:46.877Z,99.90
2018-10-16T01:00:15.142Z,99.90
2018-10-16T01:02:43.953Z,99.90
2018-10-16T01:05:12.951Z,99.90
2018-10-16T01:07:41.741Z,99.90
2018-10-16T01:10:10.975Z,99.90
2018-10-16T01:12:39.881Z,99.90
2018-10-16T01:15:09.286Z,99.90
2018-10-16T01:17:37.929Z,99.90
2018-10-16T01:20:07.961Z,99.90
2018-10-16T01:22:36.237Z,99.90
2018-10-16T01:25:05.337Z,99.90
2018-10-16T01:27:33.561Z,99.90
2018-10-16T01:30:01.819Z,99.90
2018-10-16T01:32:30.093Z,99.90
2018-10-16T01:34:58.315Z,99.90
2018-10-16T01:37:26.560Z,99.90
2018-10-16T01:39:54.761Z,99.90
2018-10-16T01:42:23.221Z,99.90
2018-10-16T01:44:51.426Z,99.90
2018-10-16T01:47:19.665Z,99.90
2018-10-16T01:49:47.885Z,99.90
2018-10-16T01:52:16.103Z,99.90
2018-10-16T01:54:44.344Z,99.90
2018-10-16T01:57:12.577Z,99.90
2018-10-16T01:59:40.792Z,99.90
2018-10-16T02:02:09.042Z,99.90
2018-10-16T02:04:37.413Z,99.90
2018-10-16T02:07:05.715Z,99.90
2018-10-16T02:09:33.949Z,99.90
2018-10-16T02:12:02.205Z,99.90
2018-10-16T02:14:30.420Z,99.90
2018-10-16T02:16:58.641Z,99.90
2018-10-16T02:19:26.857Z,99.90
2018-10-16T02:21:55.065Z,99.90
2018-10-16T02:24:23.301Z,99.90
2018-10-16T02:26:51.561Z,99.90
2018-10-16T02:29:19.784Z,99.90
2018-10-16T02:31:48.010Z,99.90
2018-10-16T02:34:16.239Z,99.90
2018-10-16T02:36:44.426Z,99.90
2018-10-16T02:39:12.610Z,99.90
2018-10-16T02:41:40.834Z,99.90
2018-10-16T02:44:09.605Z,99.90
2018-10-16T02:46:37.881Z,99.90
2018-10-16T02:49:06.617Z,99.90
2018-10-16T02:51:34.834Z,99.90
2018-10-16T02:54:03.069Z,99.90
2018-10-16T02:56:31.269Z,99.90
2018-10-16T02:58:59.486Z,99.90
2018-10-16T03:01:28.271Z,99.90
2018-10-16T03:03:56.468Z,99.90
2018-10-16T03:06:24.689Z,99.90
2018-10-16T03:08:52.898Z,99.90
2018-10-16T03:11:21.171Z,99.90
2018-10-16T03:13:49.530Z,99.90
2018-10-16T03:16:17.739Z,99.90
2018-10-16T03:18:46.025Z,99.90
2018-10-16T03:21:14.249Z,99.90
2018-10-16T03:23:42.491Z,99.90
2018-10-16T03:26:10.706Z,99.90
2018-10-16T03:28:38.930Z,99.90
2018-10-16T03:31:07.153Z,99.90
2018-10-16T03:33:35.663Z,99.90
2018-10-16T03:36:03.949Z,99.90
2018-10-16T03:38:32.147Z,99.90
2018-10-16T03:41:00.361Z,99.90
2018-10-16T03:43:28.565Z,99.90
2018-10-16T03:45:56.782Z,99.90
2018-10-16T03:48:24.993Z,99.90
2018-10-16T03:50:53.224Z,99.90
2018-10-16T03:53:21.463Z,99.90
2018-10-16T03:55:49.816Z,99.90
2018-10-16T03:58:18.049Z,99.90
2018-10-16T04:00:46.288Z,99.90
2018-10-16T04:03:14.529Z,99.90
2018-10-16T04:05:42.807Z,99.90
2018-10-16T04:08:10.957Z,99.90
2018-10-16T04:10:39.188Z,99.90
2018-10-16T04:13:07.401Z,99.90
2018-10-16T04:15:35.641Z,99.90
2018-10-16T04:18:04.027Z,99.90
2018-10-16T04:20:32.226Z,99.90
2018-10-16T04:23:00.508Z,99.90
2018-10-16T04:25:28.653Z,99.90
2018-10-16T04:27:56.881Z,99.90
2018-10-16T04:30:25.074Z,99.90
2018-10-16T04:32:53.276Z,99.90
2018-10-16T04:35:21.498Z,99.90
2018-10-16T04:37:49.721Z,99.90
2018-10-16T04:40:17.924Z,99.90
2018-10-16T04:42:46.122Z,99.90
2018-10-16T04:45:14.353Z,99.90
2018-10-16T04:47:42.540Z,99.90
2018-10-16T04:50:11.559Z,99.90
2018-10-16T04:52:40.025Z,99.90
2018-10-16T04:55:08.616Z,99.90
2018-10-16T04:57:37.185Z,99.90
2018-10-16T05:00:06.533Z,99.90
2018-10-16T05:02:34.791Z,99.90
2018-10-16T05:05:03.041Z,99.90
2018-10-16T05:07:31.242Z,99.90
2018-10-16T05:09:59.453Z,99.90
2018-10-16T05:12:27.668Z,99.90
2018-10-16T05:14:55.871Z,99.90
2018-10-16T05:17:24.665Z,99.90
2018-10-16T05:19:52.873Z,99.90
2018-10-16T05:22:21.286Z,99.90
2018-10-16T05:24:49.474Z,99.90
2018-10-16T05:27:17.760Z,99.90
2018-10-16T05:29:45.969Z,99.90
2018-10-16T05:32:14.181Z,99.90
2018-10-16T05:34:42.470Z,99.90
2018-10-16T05:37:10.673Z,99.80
2018-10-16T05:39:38.897Z,99.70
2018-10-16T05:42:07.095Z,99.60
2018-10-16T05:44:35.456Z,99.60
2018-10-16T05:47:03.686Z,99.70
2018-10-16T05:49:31.923Z,99.70
2018-10-16T05:52:00.153Z,99.70
2018-10-16T05:54:28.453Z,99.80
2018-10-16T05:56:57.213Z,99.90
2018-10-16T05:59:25.432Z,99.90
2018-10-16T06:01:54.528Z,99.90
2018-10-16T06:04:22.761Z,99.90
2018-10-16T06:06:51.189Z,99.90
2018-10-16T06:09:19.461Z,99.90
2018-10-16T06:11:47.720Z,99.90
2018-10-16T06:14:16.005Z,99.90
2018-10-16T06:16:44.269Z,99.90
2018-10-16T06:19:12.513Z,99.90
2018-10-16T06:21:40.921Z,99.90
2018-10-16T06:24:09.178Z,99.90
2018-10-16T06:26:37.592Z,99.90
2018-10-16T06:29:06.117Z,99.90
2018-10-16T06:31:34.361Z,99.90
2018-10-16T06:34:02.583Z,99.90
2018-10-16T06:36:31.115Z,99.90
2018-10-16T06:38:59.297Z,99.90
2018-10-16T06:41:27.514Z,99.90
2018-10-16T06:43:55.801Z,99.90
2018-10-16T06:46:24.285Z,99.90
2018-10-16T06:48:53.617Z,99.90
2018-10-16T06:51:22.888Z,99.90
2018-10-16T06:53:52.134Z,99.90
2018-10-16T06:56:20.407Z,99.90
2018-10-16T06:58:48.636Z,99.90
2018-10-16T07:01:16.858Z,99.60
2018-10-16T07:03:45.114Z,99.40
2018-10-16T07:06:13.387Z,99.10
2018-10-16T07:08:41.585Z,99.00
2018-10-16T07:11:09.877Z,98.70
2018-10-16T07:13:38.349Z,98.20
2018-10-16T07:16:06.588Z,97.70
2018-10-16T07:18:34.867Z,97.50
2018-10-16T07:21:03.148Z,97.10
2018-10-16T07:23:31.427Z,96.80
2018-10-16T07:25:59.677Z,96.40
2018-10-16T07:28:28.697Z,96.00
2018-10-16T07:31:00.119Z,96.10
2018-10-16T07:33:28.346Z,95.90
2018-10-16T07:35:56.905Z,95.80
2018-10-16T07:38:38.324Z,96.00
2018-10-16T07:41:06.497Z,96.00
2018-10-16T07:43:34.774Z,95.70
2018-10-16T07:46:03.030Z,95.70
2018-10-16T07:48:31.393Z,95.50
2018-10-16T07:50:59.492Z,95.30
2018-10-16T07:53:27.725Z,94.90
2018-10-16T07:55:56.213Z,94.30
2018-10-16T07:58:24.489Z,93.90
2018-10-16T08:00:53.147Z,93.70
2018-10-16T08:03:21.392Z,93.50
2018-10-16T08:05:49.625Z,93.20
2018-10-16T08:08:17.839Z,92.90
2018-10-16T08:10:46.073Z,92.70
2018-10-16T08:13:14.322Z,92.90
2018-10-16T08:15:42.604Z,92.70
2018-10-16T08:18:10.826Z,92.50
2018-10-16T08:20:39.182Z,92.30
2018-10-16T08:23:07.457Z,92.10
2018-10-16T08:25:35.691Z,91.80
2018-10-16T08:28:03.985Z,91.80
2018-10-16T08:30:32.289Z,91.60
2018-10-16T08:33:00.432Z,91.40
2018-10-16T08:35:28.641Z,91.30
2018-10-16T08:39:02.072Z,91.10
2018-10-16T08:41:33.411Z,90.80
2018-10-16T08:45:15.225Z,90.50
2018-10-16T08:47:55.018Z,90.70
2018-10-16T08:50:36.926Z,90.70
2018-10-16T08:53:05.193Z,90.40
2018-10-16T08:55:33.969Z,90.00
2018-10-16T08:58:03.075Z,89.20
2018-10-16T09:00:31.300Z,88.50
2018-10-16T09:02:59.532Z,87.90
2018-10-16T09:05:28.005Z,87.60
2018-10-16T09:07:56.581Z,86.60
2018-10-16T09:10:25.077Z,86.10
2018-10-16T09:12:53.273Z,85.40
2018-10-16T09:15:21.839Z,84.70
2018-10-16T09:17:50.074Z,83.20
2018-10-16T09:20:18.313Z,82.80
2018-10-16T09:22:46.755Z,83.00
2018-10-16T09:25:15.092Z,81.80
2018-10-16T09:27:43.450Z,81.30
2018-10-16T09:30:13.654Z,81.20
2018-10-16T09:32:42.109Z,79.90
2018-10-16T09:35:11.866Z,77.50
2018-10-16T09:37:40.227Z,77.30
2018-10-16T09:40:10.503Z,75.80
2018-10-16T09:42:38.808Z,76.60
2018-10-16T09:45:08.217Z,76.50
2018-10-16T09:47:36.482Z,74.40
2018-10-16T09:50:05.642Z,73.70
2018-10-16T09:52:33.868Z,72.70
2018-10-16T09:55:02.079Z,71.00
2018-10-16T09:57:30.310Z,70.30
2018-10-16T09:59:58.605Z,70.10
2018-10-16T10:02:26.825Z,68.80
2018-10-16T10:04:55.165Z,67.30
2018-10-16T10:07:23.574Z,66.20
2018-10-16T10:09:51.830Z,65.10
2018-10-16T10:12:20.105Z,62.40
2018-10-16T10:14:48.409Z,59.00
2018-10-16T10:17:16.630Z,58.20
2018-10-16T10:19:45.111Z,54.20
2018-10-16T10:22:13.305Z,51.30
2018-10-16T10:24:41.581Z,49.40
2018-10-16T10:27:09.946Z,48.60
2018-10-16T10:29:38.564Z,46.20
2018-10-16T10:32:06.849Z,45.50
2018-10-16T10:34:35.098Z,40.20
2018-10-16T10:37:04.476Z,35.60
2018-10-16T10:39:32.873Z,31.40
2018-10-16T10:42:01.160Z,29.10
2018-10-16T10:44:29.514Z,27.60
2018-10-16T10:46:57.778Z,25.70
2018-10-16T10:49:26.272Z,24.20
2018-10-16T10:51:54.753Z,23.50
2018-10-16T10:54:23.031Z,22.40
2018-10-16T10:56:51.364Z,21.80
2018-10-16T10:59:19.708Z,21.30
2018-10-16T11:01:48.165Z,20.90
2018-10-16T11:04:16.408Z,20.40
2018-10-16T11:06:44.634Z,20.40
2018-10-16T11:09:13.651Z,20.20
2018-10-16T11:11:46.026Z,19.60
2018-10-16T11:14:14.443Z,18.90
2018-10-16T11:16:43.200Z,18.30
2018-10-16T11:19:11.421Z,18.10
2018-10-16T11:21:39.683Z,19.10
2018-10-16T11:24:08.349Z,19.20
2018-10-16T11:26:36.723Z,19.10
2018-10-16T11:29:05.326Z,18.90
2018-10-16T11:31:33.557Z,18.40
2018-10-16T11:34:02.108Z,18.60
2018-10-16T11:36:30.997Z,18.20
2018-10-16T11:38:59.259Z,17.80
2018-10-16T11:41:27.662Z,17.60
2018-10-16T11:43:55.882Z,17.50
2018-10-16T11:46:24.253Z,17.10
2018-10-16T11:48:52.565Z,17.40
2018-10-16T11:51:20.765Z,17.20
2018-10-16T11:53:49.399Z,16.70
2018-10-16T11:56:17.759Z,16.20
2018-10-16T11:58:46.007Z,16.50
2018-10-16T12:01:14.242Z,16.60
2018-10-16T12:03:42.481Z,16.20
2018-10-16T12:06:10.826Z,16.20
2018-10-16T12:08:38.951Z,15.70
2018-10-16T12:11:07.596Z,15.60
2018-10-16T12:13:35.862Z,15.30
2018-10-16T12:16:04.095Z,15.60
2018-10-16T12:18:37.808Z,15.80
2018-10-16T12:21:10.376Z,15.70
2018-10-16T12:23:38.651Z,15.80
2018-10-16T12:26:06.773Z,15.80
2018-10-16T12:28:35.148Z,15.90
2018-10-16T12:31:03.458Z,16.20
2018-10-16T12:33:31.643Z,16.10
2018-10-16T12:36:00.549Z,15.90
2018-10-16T12:38:29.134Z,15.70
2018-10-16T12:40:57.295Z,15.90
2018-10-16T12:43:25.633Z,15.70
2018-10-16T12:45:54.068Z,15.60
2018-10-16T12:48:22.290Z,15.60
2018-10-16T12:50:50.590Z,15.50
2018-10-16T12:53:18.782Z,15.70
2018-10-16T12:55:46.989Z,16.00
2018-10-16T12:58:15.250Z,16.40
2018-10-16T13:00:43.869Z,16.30
2018-10-16T13:03:12.188Z,16.00
2018-10-16T13:05:40.399Z,15.90
2018-10-16T13:08:08.716Z,15.60
2018-10-16T13:10:36.917Z,15.00
2018-10-16T13:13:05.194Z,14.90
2018-10-16T13:15:33.453Z,14.80
2018-10-16T13:18:01.725Z,14.90
2018-10-16T13:20:29.997Z,15.00
2018-10-16T13:22:58.463Z,14.70
2018-10-16T13:25:26.997Z,15.00
2018-10-16T13:27:55.281Z,14.80
2018-10-16T13:30:23.429Z,15.00
2018-10-16T13:32:52.175Z,14.80
2018-10-16T13:35:21.221Z,14.70
2018-10-16T13:37:49.798Z,14.70
2018-10-16T13:40:18.191Z,14.40
2018-10-16T13:42:46.437Z,14.50
2018-10-16T13:45:15.771Z,14.50
2018-10-16T13:47:44.018Z,14.50
2018-10-16T13:50:13.620Z,14.20
2018-10-16T13:52:41.971Z,14.40
2018-10-16T13:55:10.972Z,14.30
2018-10-16T13:57:39.335Z,14.30
2018-10-16T14:00:13.332Z,14.30
2018-10-16T14:02:42.317Z,14.10
2018-10-16T14:05:10.622Z,14.10
2018-10-16T14:07:38.812Z,14.20
2018-10-16T14:10:08.891Z,14.20
2018-10-16T14:12:37.992Z,15.20
2018-10-16T14:15:06.677Z,16.50
2018-10-16T14:17:34.904Z,17.80
2018-10-16T14:20:03.196Z,19.30
2018-10-16T14:22:31.386Z,20.40
2018-10-16T14:24:59.648Z,21.80
2018-10-16T14:27:27.910Z,22.30
2018-10-16T14:29:56.253Z,23.30
2018-10-16T14:32:24.532Z,23.70
2018-10-16T14:34:52.689Z,24.40
2018-10-16T14:37:20.921Z,25.00
2018-10-16T14:39:49.351Z,25.20
2018-10-16T14:42:17.547Z,25.60
2018-10-16T14:44:45.773Z,25.80
2018-10-16T14:47:13.957Z,26.20
2018-10-16T14:49:42.177Z,26.50
2018-10-16T14:52:10.580Z,26.80
2018-10-16T14:54:38.811Z,27.10
2018-10-16T14:57:07.001Z,27.50
2018-10-16T14:59:35.229Z,27.70
2018-10-16T15:02:03.508Z,27.80
2018-10-16T15:04:31.665Z,28.00
2018-10-16T15:07:00.198Z,28.20
2018-10-16T15:09:28.397Z,28.50
2018-10-16T15:11:56.896Z,28.30
2018-10-16T15:14:25.082Z,28.60
2018-10-16T15:16:53.308Z,28.90
2018-10-16T15:19:21.518Z,29.00
2018-10-16T15:21:49.723Z,29.00
2018-10-16T15:24:17.950Z,29.50
2018-10-16T15:26:46.216Z,30.50
2018-10-16T15:29:14.462Z,31.20
2018-10-16T15:31:42.855Z,31.40
2018-10-16T15:34:11.771Z,32.10
2018-10-16T15:36:39.932Z,32.40
2018-10-16T15:39:09.757Z,33.30
2018-10-16T15:41:38.208Z,33.40
2018-10-16T15:44:06.548Z,33.60
2018-10-16T15:46:35.507Z,33.90
2018-10-16T15:49:03.882Z,33.90
2018-10-16T15:51:32.086Z,33.50
2018-10-16T15:54:00.383Z,34.20
2018-10-16T15:56:28.793Z,36.40
2018-10-16T15:58:57.282Z,36.90
2018-10-16T16:01:25.597Z,38.00
2018-10-16T16:03:53.909Z,38.50
2018-10-16T16:06:22.291Z,39.20
2018-10-16T16:08:50.632Z,39.90
2018-10-16T16:11:18.991Z,40.50
2018-10-16T16:13:47.294Z,41.00
2018-10-16T16:16:15.623Z,41.50
2018-10-16T16:18:44.302Z,42.20
2018-10-16T16:21:12.734Z,42.10
2018-10-16T16:23:41.279Z,42.40
2018-10-16T16:26:09.581Z,42.60
2018-10-16T16:28:37.812Z,43.20
2018-10-16T16:31:06.100Z,43.10
2018-10-16T16:33:34.368Z,43.20
2018-10-16T16:36:02.647Z,43.90
2018-10-16T16:38:30.930Z,44.30
2018-10-16T16:40:59.614Z,44.20
2018-10-16T16:43:27.924Z,45.10
2018-10-16T16:45:56.198Z,45.80
2018-10-16T16:48:24.445Z,46.00
2018-10-16T16:50:52.672Z,46.30
2018-10-16T16:53:21.134Z,46.70
2018-10-16T16:55:49.573Z,46.90
2018-10-16T16:58:17.902Z,47.10
2018-10-16T17:00:46.194Z,47.40
2018-10-16T17:03:14.445Z,47.70
2018-10-16T17:05:42.796Z,48.10
2018-10-16T17:08:11.089Z,48.20
2018-10-16T17:10:39.269Z,48.70
2018-10-16T17:13:07.713Z,48.80
2018-10-16T17:15:36.092Z,49.30
2018-10-16T17:18:04.394Z,49.20
2018-10-16T17:20:32.657Z,49.10
2018-10-16T17:23:00.910Z,49.20
2018-10-16T17:25:29.650Z,49.30
2018-10-16T17:27:57.594Z,49.70
2018-10-16T17:30:25.954Z,50.20
2018-10-16T17:32:54.282Z,50.30
2018-10-16T17:35:22.513Z,51.10
2018-10-16T17:37:50.821Z,51.40
2018-10-16T17:40:19.218Z,51.80
2018-10-16T17:42:47.440Z,52.00
2018-10-16T17:45:16.698Z,52.60
2018-10-16T17:47:45.206Z,53.60
2018-10-16T17:50:15.444Z,54.20
2018-10-16T17:52:43.744Z,55.00
2018-10-16T17:55:12.802Z,56.00
2018-10-16T17:57:41.212Z,56.70
2018-10-16T18:00:14.923Z,57.20
2018-10-16T18:02:43.798Z,57.20
2018-10-16T18:05:12.675Z,57.10
2018-10-16T18:07:41.131Z,57.40
2018-10-16T18:10:09.452Z,60.50
2018-10-16T18:12:38.165Z,62.60
2018-10-16T18:15:08.092Z,63.90
2018-10-16T18:17:36.312Z,64.90
2018-10-16T18:20:05.801Z,65.50
2018-10-16T18:22:34.094Z,65.80
2018-10-16T18:25:02.286Z,65.90
2018-10-16T18:27:30.547Z,66.40
2018-10-16T18:29:58.901Z,68.20
2018-10-16T18:32:27.128Z,69.50
2018-10-16T18:34:55.390Z,70.60
2018-10-16T18:37:23.645Z,70.80
2018-10-16T18:39:51.944Z,71.30
2018-10-16T18:42:20.310Z,71.30
2018-10-16T18:44:48.761Z,72.00
2018-10-16T18:47:17.058Z,72.70
2018-10-16T18:49:45.385Z,73.10
2018-10-16T18:52:13.680Z,72.70
2018-10-16T18:54:42.004Z,72.90
2018-10-16T18:57:10.387Z,72.90
2018-10-16T18:59:38.710Z,73.20
2018-10-16T19:02:07.101Z,74.20
2018-10-16T19:04:35.392Z,74.00
2018-10-16T19:07:03.814Z,74.20
2018-10-16T19:09:32.174Z,75.50
2018-10-16T19:12:00.401Z,75.40
2018-10-16T19:14:29.027Z,77.30
2018-10-16T19:16:57.408Z,78.70
2018-10-16T19:19:25.639Z,80.50
2018-10-16T19:21:53.912Z,81.60
2018-10-16T19:24:22.697Z,83.00
2018-10-16T19:26:50.973Z,84.10
2018-10-16T19:29:19.192Z,84.50
2018-10-16T19:31:47.559Z,84.80
2018-10-16T19:34:15.851Z,84.70
2018-10-16T19:36:44.234Z,84.20
2018-10-16T19:39:13.083Z,83.40
2018-10-16T19:41:41.582Z,83.20
2018-10-16T19:44:09.833Z,82.70
2018-10-16T19:46:38.081Z,82.60
2018-10-16T19:49:06.527Z,82.90
2018-10-16T19:51:34.776Z,83.50
2018-10-16T19:54:03.039Z,83.60
2018-10-16T19:56:31.281Z,83.60
2018-10-16T19:58:59.603Z,85.20
2018-10-16T20:01:27.866Z,85.10
2018-10-16T20:03:56.091Z,85.40
2018-10-16T20:06:24.356Z,85.80
2018-10-16T20:08:52.688Z,86.40
2018-10-16T20:11:20.920Z,87.10
2018-10-16T20:13:49.144Z,87.90
2018-10-16T20:16:17.430Z,88.90
2018-10-16T20:18:45.703Z,89.10
2018-10-16T20:21:14.155Z,89.90
2018-10-16T20:23:42.428Z,89.70
2018-10-16T20:26:10.689Z,90.30
2018-10-16T20:28:39.158Z,90.60
2018-10-16T20:31:07.439Z,91.10
2018-10-16T20:33:35.661Z,91.50
2018-10-16T20:36:03.929Z,91.90
2018-10-16T20:38:32.186Z,91.70
2018-10-16T20:41:00.457Z,91.90
2018-10-16T20:43:28.909Z,91.90
2018-10-16T20:45:57.138Z,91.90
2018-10-16T20:48:25.405Z,91.80
2018-10-16T20:50:53.654Z,92.10
2018-10-16T20:53:21.893Z,92.70
2018-10-16T20:55:50.290Z,93.10
2018-10-16T20:58:18.538Z,93.20
2018-10-16T21:00:46.847Z,93.70
2018-10-16T21:03:15.113Z,93.80
2018-10-16T21:05:43.449Z,94.00
2018-10-16T21:08:11.873Z,94.00
2018-10-16T21:10:40.153Z,94.10
2018-10-16T21:13:08.488Z,94.00
2018-10-16T21:15:36.684Z,93.80
2018-10-16T21:18:04.931Z,93.80
2018-10-16T21:20:33.211Z,93.80
2018-10-16T21:23:01.512Z,93.70
2018-10-16T21:25:29.753Z,93.50
2018-10-16T21:27:58.147Z,93.60
2018-10-16T21:30:26.418Z,93.70
2018-10-16T21:32:54.743Z,93.80
2018-10-16T21:35:23.010Z,93.80
2018-10-16T21:37:51.257Z,93.90
2018-10-16T21:40:19.529Z,94.10
2018-10-16T21:42:47.809Z,94.20
2018-10-16T21:45:16.140Z,94.50
2018-10-16T21:47:44.366Z,94.80
2018-10-16T21:50:12.638Z,95.20
2018-10-16T21:52:40.912Z,95.50
2018-10-16T21:55:09.237Z,95.80
2018-10-16T21:57:37.464Z,96.20
2018-10-16T22:00:08.082Z,96.40
2018-10-16T22:02:41.682Z,96.50
2018-10-16T22:05:10.061Z,96.70
2018-10-16T22:07:38.258Z,96.90
2018-10-16T22:10:06.645Z,97.10
2018-10-16T22:12:34.891Z,97.10
2018-10-16T22:15:03.188Z,97.00
2018-10-16T22:17:31.628Z,97.20
2018-10-16T22:19:59.870Z,97.30
2018-10-16T22:22:28.124Z,97.40
2018-10-16T22:24:56.481Z,97.40
2018-10-16T22:27:24.660Z,97.40
2018-10-16T22:29:52.928Z,97.40
2018-10-16T22:32:21.246Z,97.30
2018-10-16T22:34:49.489Z,97.40
2018-10-16T22:37:17.812Z,97.60
2018-10-16T22:39:45.966Z,97.90
2018-10-16T22:42:14.262Z,98.10
2018-10-16T22:44:42.502Z,98.20
2018-10-16T22:47:10.789Z,98.10
2018-10-16T22:49:39.057Z,98.20
2018-10-16T22:52:07.321Z,98.40
2018-10-16T22:54:35.777Z,98.50
2018-10-16T22:57:04.097Z,98.50
2018-10-16T22:59:32.357Z,98.60
2018-10-16T23:02:00.679Z,98.70
2018-10-16T23:04:29.001Z,98.60
2018-10-16T23:06:57.373Z,98.40
2018-10-16T23:09:25.657Z,98.30
2018-10-16T23:11:53.986Z,98.30
2018-10-16T23:14:22.300Z,98.40
2018-10-16T23:16:50.834Z,98.60
2018-10-16T23:19:19.091Z,98.50
2018-10-16T23:21:47.338Z,98.40
2018-10-16T23:24:15.621Z,98.30
2018-10-16T23:26:43.947Z,98.20
2018-10-16T23:29:12.339Z,98.20
2018-10-16T23:31:40.475Z,98.30
2018-10-16T23:34:08.806Z,98.40
2018-10-16T23:36:37.109Z,98.40
2018-10-16T23:39:10.591Z,98.50
2018-10-16T23:41:39.749Z,98.40
2018-10-16T23:44:07.997Z,98.40
2018-10-16T23:46:36.736Z,98.60
2018-10-16T23:49:05.249Z,98.70
2018-10-16T23:51:33.466Z,98.80
2018-10-16T23:54:01.705Z,98.80
2018-10-16T23:57:59.427Z,98.60
